sensor_id;sensor_type;location;lat;lon;timestamp;pressure;altitude;pressure_sealevel;temperature;humidity
7309;BME280;3695;53.330;9.876;2023-08-31T00:01:23;99575.72;;;13.29;83.79
7309;BME280;3695;53.330;9.876;2023-08-31T00:03:50;99575.72;;;13.28;83.82
7309;BME280;3695;53.330;9.876;2023-08-31T00:06:16;99585.47;;;13.18;83.92
7309;BME280;3695;53.330;9.876;2023-08-31T00:08:43;99581.03;;;13.23;83.76
7309;BME280;3695;53.330;9.876;2023-08-31T00:11:10;99589.75;;;13.34;83.59
7309;BME280;3695;53.330;9.876;2023-08-31T00:13:36;99589.84;;;13.24;83.96
7309;BME280;3695;53.330;9.876;2023-08-31T00:16:04;99583.69;;;13.25;83.73
7309;BME280;3695;53.330;9.876;2023-08-31T00:18:31;99574.88;;;13.26;83.64
7309;BME280;3695;53.330;9.876;2023-08-31T00:20:57;99580.19;;;13.17;83.74
7309;BME280;3695;53.330;9.876;2023-08-31T00:23:24;99578.41;;;13.25;83.71
7309;BME280;3695;53.330;9.876;2023-08-31T00:25:50;99588.06;;;13.23;83.88
7309;BME280;3695;53.330;9.876;2023-08-31T00:28:19;99581.00;;;13.28;84.16
7309;BME280;3695;53.330;9.876;2023-08-31T00:30:45;99590.75;;;13.17;83.62
7309;BME280;3695;53.330;9.876;2023-08-31T00:33:15;99600.47;;;13.13;83.76
7309;BME280;3695;53.330;9.876;2023-08-31T00:35:41;99595.16;;;13.16;83.83
7309;BME280;3695;53.330;9.876;2023-08-31T00:38:11;99594.31;;;13.13;84.01
7309;BME280;3695;53.330;9.876;2023-08-31T00:40:40;99591.69;;;12.97;83.92
7309;BME280;3695;53.330;9.876;2023-08-31T00:43:08;99595.22;;;12.95;84.11
7309;BME280;3695;53.330;9.876;2023-08-31T00:45:34;99602.25;;;13.00;83.86
7309;BME280;3695;53.330;9.876;2023-08-31T00:48:01;99595.22;;;12.99;84.04
7309;BME280;3695;53.330;9.876;2023-08-31T00:50:29;99599.59;;;13.00;84.07
7309;BME280;3695;53.330;9.876;2023-08-31T00:52:55;99596.97;;;12.97;83.82
7309;BME280;3695;53.330;9.876;2023-08-31T00:55:22;99595.19;;;12.96;84.04
7309;BME280;3695;53.330;9.876;2023-08-31T00:57:48;99601.41;;;12.89;84.19
7309;BME280;3695;53.330;9.876;2023-08-31T01:00:15;99591.78;;;12.82;84.09
7309;BME280;3695;53.330;9.876;2023-08-31T01:02:50;99597.03;;;12.82;84.07
7309;BME280;3695;53.330;9.876;2023-08-31T01:05:32;99595.31;;;12.72;84.41
7309;BME280;3695;53.330;9.876;2023-08-31T01:08:10;99599.69;;;12.76;84.09
7309;BME280;3695;53.330;9.876;2023-08-31T01:10:46;99597.06;;;12.73;84.38
7309;BME280;3695;53.330;9.876;2023-08-31T01:13:19;99604.97;;;12.75;84.44
7309;BME280;3695;53.330;9.876;2023-08-31T01:15:52;99602.34;;;12.76;84.10
7309;BME280;3695;53.330;9.876;2023-08-31T01:18:21;99597.09;;;12.72;84.13
7309;BME280;3695;53.330;9.876;2023-08-31T01:20:55;99610.25;;;12.75;84.57
7309;BME280;3695;53.330;9.876;2023-08-31T01:23:29;99610.25;;;12.75;84.53
7309;BME280;3695;53.330;9.876;2023-08-31T01:25:58;99604.06;;;12.82;84.36
7309;BME280;3695;53.330;9.876;2023-08-31T01:28:25;99601.47;;;12.74;84.57
7309;BME280;3695;53.330;9.876;2023-08-31T01:30:52;99604.97;;;12.75;84.53
7309;BME280;3695;53.330;9.876;2023-08-31T01:33:18;99603.16;;;12.84;84.35
7309;BME280;3695;53.330;9.876;2023-08-31T01:35:48;99609.38;;;12.77;84.27
7309;BME280;3695;53.330;9.876;2023-08-31T01:38:21;99610.25;;;12.67;84.33
7309;BME280;3695;53.330;9.876;2023-08-31T01:40:55;99608.53;;;12.61;84.31
7309;BME280;3695;53.330;9.876;2023-08-31T01:43:30;99598.88;;;12.59;84.15
7309;BME280;3695;53.330;9.876;2023-08-31T01:45:57;99596.22;;;12.63;84.41
7309;BME280;3695;53.330;9.876;2023-08-31T01:48:24;99605.91;;;12.55;84.17
7309;BME280;3695;53.330;9.876;2023-08-31T01:50:51;99608.53;;;12.60;84.35
7309;BME280;3695;53.330;9.876;2023-08-31T01:53:17;99603.28;;;12.58;84.50
7309;BME280;3695;53.330;9.876;2023-08-31T01:55:43;99613.81;;;12.54;84.31
7309;BME280;3695;53.330;9.876;2023-08-31T01:58:10;99608.56;;;12.52;84.17
7309;BME280;3695;53.330;9.876;2023-08-31T02:00:38;99607.69;;;12.52;84.14
7309;BME280;3695;53.330;9.876;2023-08-31T02:03:04;99619.09;;;12.52;84.49
7309;BME280;3695;53.330;9.876;2023-08-31T02:05:31;99606.81;;;12.38;84.21
7309;BME280;3695;53.330;9.876;2023-08-31T02:07:57;99613.00;;;12.34;84.43
7309;BME280;3695;53.330;9.876;2023-08-31T02:10:24;99614.75;;;12.41;84.21
7309;BME280;3695;53.330;9.876;2023-08-31T02:12:51;99623.53;;;12.34;84.27
7309;BME280;3695;53.330;9.876;2023-08-31T02:15:18;99626.19;;;12.28;84.56
7309;BME280;3695;53.330;9.876;2023-08-31T02:17:45;99626.16;;;12.41;84.45
7309;BME280;3695;53.330;9.876;2023-08-31T02:20:12;99622.63;;;12.38;84.46
7309;BME280;3695;53.330;9.876;2023-08-31T02:22:39;99622.66;;;12.32;84.26
7309;BME280;3695;53.330;9.876;2023-08-31T02:25:06;99620.91;;;12.34;84.25
7309;BME280;3695;53.330;9.876;2023-08-31T02:27:33;99632.31;;;12.33;84.33
7309;BME280;3695;53.330;9.876;2023-08-31T02:29:59;99625.28;;;12.35;84.47
7309;BME280;3695;53.330;9.876;2023-08-31T02:32:26;99633.16;;;12.36;84.21
7309;BME280;3695;53.330;9.876;2023-08-31T02:34:53;99629.69;;;12.28;84.17
7309;BME280;3695;53.330;9.876;2023-08-31T02:37:20;99642.84;;;12.20;84.19
7309;BME280;3695;53.330;9.876;2023-08-31T02:39:46;99643.75;;;12.21;83.85
7309;BME280;3695;53.330;9.876;2023-08-31T02:42:13;99636.72;;;12.12;84.03
7309;BME280;3695;53.330;9.876;2023-08-31T02:44:40;99644.63;;;12.08;84.32
7309;BME280;3695;53.330;9.876;2023-08-31T02:47:07;99646.38;;;12.07;84.37
7309;BME280;3695;53.330;9.876;2023-08-31T02:49:33;99650.75;;;12.25;84.06
7309;BME280;3695;53.330;9.876;2023-08-31T02:52:01;99649.00;;;12.12;84.04
7309;BME280;3695;53.330;9.876;2023-08-31T02:54:28;99656.03;;;12.13;84.02
7309;BME280;3695;53.330;9.876;2023-08-31T02:56:54;99662.16;;;12.06;84.06
7309;BME280;3695;53.330;9.876;2023-08-31T02:59:20;99652.50;;;12.18;84.04
7309;BME280;3695;53.330;9.876;2023-08-31T03:01:48;99656.03;;;11.98;83.95
7309;BME280;3695;53.330;9.876;2023-08-31T03:04:14;99656.03;;;11.93;83.94
7309;BME280;3695;53.330;9.876;2023-08-31T03:06:41;99647.25;;;12.00;83.81
7309;BME280;3695;53.330;9.876;2023-08-31T03:09:09;99645.50;;;11.81;83.96
7309;BME280;3695;53.330;9.876;2023-08-31T03:11:36;99640.22;;;11.78;84.04
7309;BME280;3695;53.330;9.876;2023-08-31T03:14:02;99644.59;;;11.94;84.41
7309;BME280;3695;53.330;9.876;2023-08-31T03:16:28;99641.09;;;11.77;84.00
7309;BME280;3695;53.330;9.876;2023-08-31T03:18:55;99647.25;;;11.74;84.04
7309;BME280;3695;53.330;9.876;2023-08-31T03:21:21;99645.47;;;11.76;84.08
7309;BME280;3695;53.330;9.876;2023-08-31T03:23:48;99638.41;;;11.69;84.12
7309;BME280;3695;53.330;9.876;2023-08-31T03:26:16;99643.69;;;11.63;84.06
7309;BME280;3695;53.330;9.876;2023-08-31T03:28:42;99637.56;;;11.69;83.92
7309;BME280;3695;53.330;9.876;2023-08-31T03:31:09;99636.66;;;11.70;84.02
7309;BME280;3695;53.330;9.876;2023-08-31T03:33:35;99638.41;;;11.56;84.08
7309;BME280;3695;53.330;9.876;2023-08-31T03:36:02;99647.19;;;11.65;84.03
7309;BME280;3695;53.330;9.876;2023-08-31T03:38:29;99639.28;;;11.65;84.00
7309;BME280;3695;53.330;9.876;2023-08-31T03:40:57;99650.69;;;11.57;83.78
7309;BME280;3695;53.330;9.876;2023-08-31T03:43:24;99642.78;;;11.49;83.87
7309;BME280;3695;53.330;9.876;2023-08-31T03:45:53;99648.06;;;11.57;84.05
7309;BME280;3695;53.330;9.876;2023-08-31T03:48:21;99644.53;;;11.64;84.02
7309;BME280;3695;53.330;9.876;2023-08-31T03:50:49;99650.69;;;11.55;83.94
7309;BME280;3695;53.330;9.876;2023-08-31T03:53:15;99653.34;;;11.63;83.90
7309;BME280;3695;53.330;9.876;2023-08-31T03:55:41;99650.69;;;11.54;83.85
7309;BME280;3695;53.330;9.876;2023-08-31T03:58:08;99655.94;;;11.60;83.89
7309;BME280;3695;53.330;9.876;2023-08-31T04:00:36;99657.69;;;11.50;83.88
7309;BME280;3695;53.330;9.876;2023-08-31T04:03:03;99653.31;;;11.57;83.93
7309;BME280;3695;53.330;9.876;2023-08-31T04:05:32;99654.19;;;11.50;83.71
7309;BME280;3695;53.330;9.876;2023-08-31T04:07:58;99657.66;;;11.42;83.80
7309;BME280;3695;53.330;9.876;2023-08-31T04:10:25;99659.41;;;11.42;83.70
7309;BME280;3695;53.330;9.876;2023-08-31T04:12:52;99660.31;;;11.49;83.96
7309;BME280;3695;53.330;9.876;2023-08-31T04:15:18;99659.44;;;11.50;83.94
7309;BME280;3695;53.330;9.876;2023-08-31T04:17:46;99655.91;;;11.37;83.85
7309;BME280;3695;53.330;9.876;2023-08-31T04:20:12;99658.53;;;11.41;83.96
7309;BME280;3695;53.330;9.876;2023-08-31T04:22:39;99663.81;;;11.38;83.92
7309;BME280;3695;53.330;9.876;2023-08-31T04:25:06;99667.31;;;11.39;84.02
7309;BME280;3695;53.330;9.876;2023-08-31T04:27:32;99672.59;;;11.43;83.75
7309;BME280;3695;53.330;9.876;2023-08-31T04:30:00;99673.44;;;11.36;83.90
7309;BME280;3695;53.330;9.876;2023-08-31T04:32:27;99677.81;;;11.40;83.87
7309;BME280;3695;53.330;9.876;2023-08-31T04:34:56;99685.66;;;11.28;84.04
7309;BME280;3695;53.330;9.876;2023-08-31T04:37:22;99693.56;;;11.28;83.84
7309;BME280;3695;53.330;9.876;2023-08-31T04:39:48;99693.53;;;11.22;84.01
7309;BME280;3695;53.330;9.876;2023-08-31T04:42:15;99699.69;;;11.29;83.99
7309;BME280;3695;53.330;9.876;2023-08-31T04:44:42;99699.69;;;11.27;83.93
7309;BME280;3695;53.330;9.876;2023-08-31T04:47:08;99701.50;;;11.40;84.09
7309;BME280;3695;53.330;9.876;2023-08-31T04:49:35;99696.22;;;11.36;83.91
7309;BME280;3695;53.330;9.876;2023-08-31T04:52:03;99694.44;;;11.29;83.89
7309;BME280;3695;53.330;9.876;2023-08-31T04:54:30;99705.88;;;11.32;84.10
7309;BME280;3695;53.330;9.876;2023-08-31T04:56:56;99706.75;;;11.37;83.79
7309;BME280;3695;53.330;9.876;2023-08-31T04:59:22;99715.44;;;11.17;83.82
7309;BME280;3695;53.330;9.876;2023-08-31T05:01:49;99723.44;;;11.42;83.89
7309;BME280;3695;53.330;9.876;2023-08-31T05:04:15;99726.94;;;11.43;83.80
7309;BME280;3695;53.330;9.876;2023-08-31T05:06:42;99734.81;;;11.37;83.57
7309;BME280;3695;53.330;9.876;2023-08-31T05:09:10;99732.22;;;11.45;83.62
7309;BME280;3695;53.330;9.876;2023-08-31T05:11:36;99726.94;;;11.46;83.70
7309;BME280;3695;53.330;9.876;2023-08-31T05:14:02;99734.00;;;11.50;83.45
7309;BME280;3695;53.330;9.876;2023-08-31T05:16:29;99733.09;;;11.43;83.38
7309;BME280;3695;53.330;9.876;2023-08-31T05:18:55;99729.59;;;11.48;83.33
7309;BME280;3695;53.330;9.876;2023-08-31T05:21:22;99730.50;;;11.51;83.48
7309;BME280;3695;53.330;9.876;2023-08-31T05:23:48;99735.72;;;11.47;83.52
7309;BME280;3695;53.330;9.876;2023-08-31T05:26:16;99743.66;;;11.54;83.35
7309;BME280;3695;53.330;9.876;2023-08-31T05:28:42;99750.69;;;11.57;83.23
7309;BME280;3695;53.330;9.876;2023-08-31T05:31:09;99752.41;;;11.52;83.28
7309;BME280;3695;53.330;9.876;2023-08-31T05:33:35;99755.94;;;11.51;83.23
7309;BME280;3695;53.330;9.876;2023-08-31T05:36:02;99753.28;;;11.45;83.47
7309;BME280;3695;53.330;9.876;2023-08-31T05:38:29;99747.16;;;11.53;83.36
7309;BME280;3695;53.330;9.876;2023-08-31T05:41:03;99755.06;;;11.55;83.22
7309;BME280;3695;53.330;9.876;2023-08-31T05:43:32;99744.53;;;11.58;83.15
7309;BME280;3695;53.330;9.876;2023-08-31T05:45:59;99754.22;;;11.69;83.23
7309;BME280;3695;53.330;9.876;2023-08-31T05:48:25;99755.94;;;11.64;83.42
7309;BME280;3695;53.330;9.876;2023-08-31T05:50:51;99755.97;;;11.61;83.49
7309;BME280;3695;53.330;9.876;2023-08-31T05:53:18;99760.44;;;11.74;83.13
7309;BME280;3695;53.330;9.876;2023-08-31T05:55:44;99766.59;;;11.84;83.09
7309;BME280;3695;53.330;9.876;2023-08-31T05:58:11;99766.59;;;11.90;83.06
7309;BME280;3695;53.330;9.876;2023-08-31T06:00:39;99770.13;;;11.91;83.25
7309;BME280;3695;53.330;9.876;2023-08-31T06:03:06;99774.50;;;11.90;82.61
7309;BME280;3695;53.330;9.876;2023-08-31T06:05:32;99767.47;;;12.00;82.65
7309;BME280;3695;53.330;9.876;2023-08-31T06:08:00;99770.16;;;12.15;82.92
7309;BME280;3695;53.330;9.876;2023-08-31T06:10:27;99774.56;;;12.14;82.54
7309;BME280;3695;53.330;9.876;2023-08-31T06:12:54;99771.03;;;12.24;82.80
7309;BME280;3695;53.330;9.876;2023-08-31T06:15:20;99771.94;;;12.17;82.54
7309;BME280;3695;53.330;9.876;2023-08-31T06:17:48;99766.63;;;12.08;82.38
7309;BME280;3695;53.330;9.876;2023-08-31T06:20:14;99780.69;;;12.13;82.52
7309;BME280;3695;53.330;9.876;2023-08-31T06:22:41;99782.47;;;12.27;82.62
7309;BME280;3695;53.330;9.876;2023-08-31T06:25:08;99786.84;;;12.09;82.55
7309;BME280;3695;53.330;9.876;2023-08-31T06:30:04;99784.19;;;12.09;82.14
7309;BME280;3695;53.330;9.876;2023-08-31T06:32:32;99784.19;;;12.03;82.26
7309;BME280;3695;53.330;9.876;2023-08-31T06:35:00;99778.94;;;12.31;82.45
7309;BME280;3695;53.330;9.876;2023-08-31T06:37:26;99781.59;;;12.21;82.42
7309;BME280;3695;53.330;9.876;2023-08-31T06:39:53;99771.06;;;12.41;81.64
7309;BME280;3695;53.330;9.876;2023-08-31T06:42:19;99772.84;;;12.53;81.93
7309;BME280;3695;53.330;9.876;2023-08-31T06:44:46;99778.97;;;12.64;82.01
7309;BME280;3695;53.330;9.876;2023-08-31T06:47:11;99771.94;;;12.54;81.53
7309;BME280;3695;53.330;9.876;2023-08-31T06:49:39;99769.31;;;12.68;81.73
7309;BME280;3695;53.330;9.876;2023-08-31T06:52:06;99767.56;;;12.70;81.16
7309;BME280;3695;53.330;9.876;2023-08-31T06:54:33;99775.47;;;12.65;81.16
7309;BME280;3695;53.330;9.876;2023-08-31T06:57:00;99777.19;;;12.66;81.27
7309;BME280;3695;53.330;9.876;2023-08-31T06:59:26;99766.66;;;12.80;81.17
7309;BME280;3695;53.330;9.876;2023-08-31T07:01:53;99773.69;;;12.94;80.84
7309;BME280;3695;53.330;9.876;2023-08-31T07:04:19;99771.91;;;12.99;80.88
7309;BME280;3695;53.330;9.876;2023-08-31T07:06:46;99771.00;;;13.08;80.24
7309;BME280;3695;53.330;9.876;2023-08-31T07:09:14;99779.81;;;13.15;80.20
7309;BME280;3695;53.330;9.876;2023-08-31T07:11:40;99776.28;;;13.16;80.02
7309;BME280;3695;53.330;9.876;2023-08-31T07:14:07;99776.28;;;13.05;80.11
7309;BME280;3695;53.330;9.876;2023-08-31T07:16:33;99777.13;;;13.33;79.99
7309;BME280;3695;53.330;9.876;2023-08-31T07:18:59;99775.41;;;13.15;80.08
7309;BME280;3695;53.330;9.876;2023-08-31T07:21:26;99781.47;;;13.55;79.86
7309;BME280;3695;53.330;9.876;2023-08-31T07:23:53;99778.03;;;13.32;79.31
7309;BME280;3695;53.330;9.876;2023-08-31T07:26:20;99782.41;;;13.30;79.09
7309;BME280;3695;53.330;9.876;2023-08-31T07:28:47;99781.50;;;13.43;79.41
7309;BME280;3695;53.330;9.876;2023-08-31T07:31:13;99786.75;;;13.48;78.92
7309;BME280;3695;53.330;9.876;2023-08-31T07:33:41;99790.25;;;13.51;78.57
7309;BME280;3695;53.330;9.876;2023-08-31T07:36:07;99795.47;;;13.74;78.78
7309;BME280;3695;53.330;9.876;2023-08-31T07:38:34;99788.41;;;13.68;78.53
7309;BME280;3695;53.330;9.876;2023-08-31T07:41:01;99791.91;;;13.76;78.84
7309;BME280;3695;53.330;9.876;2023-08-31T07:43:30;99797.97;;;13.94;78.63
7309;BME280;3695;53.330;9.876;2023-08-31T07:45:57;99784.13;;;13.41;78.55
7309;BME280;3695;53.330;9.876;2023-08-31T07:48:23;99790.13;;;13.81;78.95
7309;BME280;3695;53.330;9.876;2023-08-31T07:50:50;99792.66;;;14.01;78.26
7309;BME280;3695;53.330;9.876;2023-08-31T07:53:16;99787.41;;;13.98;77.88
7309;BME280;3695;53.330;9.876;2023-08-31T07:55:51;99790.16;;;13.78;77.94
7309;BME280;3695;53.330;9.876;2023-08-31T07:58:19;99792.88;;;13.62;78.02
7309;BME280;3695;53.330;9.876;2023-08-31T08:00:48;99791.91;;;13.76;78.17
7309;BME280;3695;53.330;9.876;2023-08-31T08:03:15;99789.22;;;13.87;78.14
7309;BME280;3695;53.330;9.876;2023-08-31T08:05:41;99793.44;;;14.20;78.08
7309;BME280;3695;53.330;9.876;2023-08-31T08:08:08;99798.03;;;13.91;77.99
7309;BME280;3695;53.330;9.876;2023-08-31T08:10:34;99799.56;;;14.23;78.03
7309;BME280;3695;53.330;9.876;2023-08-31T08:13:01;99799.44;;;14.52;77.78
7309;BME280;3695;53.330;9.876;2023-08-31T08:15:28;99807.41;;;14.46;77.02
7309;BME280;3695;53.330;9.876;2023-08-31T08:17:56;99809.03;;;14.62;77.07
7309;BME280;3695;53.330;9.876;2023-08-31T08:20:23;99808.94;;;14.72;76.54
7309;BME280;3695;53.330;9.876;2023-08-31T08:22:50;99815.53;;;14.07;76.30
7309;BME280;3695;53.330;9.876;2023-08-31T08:25:17;99814.66;;;14.08;77.01
7309;BME280;3695;53.330;9.876;2023-08-31T08:27:44;99814.72;;;13.96;76.87
7309;BME280;3695;53.330;9.876;2023-08-31T08:30:10;99808.53;;;14.01;76.99
7309;BME280;3695;53.330;9.876;2023-08-31T08:32:37;99821.69;;;14.09;77.56
7309;BME280;3695;53.330;9.876;2023-08-31T08:35:05;99821.81;;;13.83;77.22
7309;BME280;3695;53.330;9.876;2023-08-31T08:37:32;99812.78;;;14.28;77.14
7309;BME280;3695;53.330;9.876;2023-08-31T08:39:58;99818.78;;;14.54;76.49
7309;BME280;3695;53.330;9.876;2023-08-31T08:42:25;99804.66;;;14.58;76.75
7309;BME280;3695;53.330;9.876;2023-08-31T08:44:52;99810.00;;;14.48;76.06
7309;BME280;3695;53.330;9.876;2023-08-31T08:47:18;99817.09;;;14.44;75.77
7309;BME280;3695;53.330;9.876;2023-08-31T08:49:47;99811.88;;;14.29;76.05
7309;BME280;3695;53.330;9.876;2023-08-31T08:52:15;99806.56;;;14.34;76.30
7309;BME280;3695;53.330;9.876;2023-08-31T08:54:41;99798.81;;;14.08;76.38
7309;BME280;3695;53.330;9.876;2023-08-31T08:57:08;99803.06;;;14.30;76.41
7309;BME280;3695;53.330;9.876;2023-08-31T08:59:34;99794.09;;;14.55;76.02
7309;BME280;3695;53.330;9.876;2023-08-31T09:02:01;99801.00;;;14.73;75.22
7309;BME280;3695;53.330;9.876;2023-08-31T09:04:29;99790.44;;;14.72;74.41
7309;BME280;3695;53.330;9.876;2023-08-31T09:06:56;99813.78;;;15.20;74.31
7309;BME280;3695;53.330;9.876;2023-08-31T09:09:24;99807.78;;;15.04;73.74
7309;BME280;3695;53.330;9.876;2023-08-31T09:11:51;99806.22;;;14.82;73.87
7309;BME280;3695;53.330;9.876;2023-08-31T09:14:18;99800.00;;;14.88;74.40
7309;BME280;3695;53.330;9.876;2023-08-31T09:16:46;99808.94;;;14.76;74.51
7309;BME280;3695;53.330;9.876;2023-08-31T09:19:19;99810.47;;;15.00;74.18
7309;BME280;3695;53.330;9.876;2023-08-31T09:21:47;99799.91;;;14.95;74.00
7309;BME280;3695;53.330;9.876;2023-08-31T09:24:13;99807.13;;;14.83;74.14
7309;BME280;3695;53.330;9.876;2023-08-31T09:26:43;99808.50;;;15.22;74.07
7309;BME280;3695;53.330;9.876;2023-08-31T09:29:10;99814.13;;;14.84;74.09
7309;BME280;3695;53.330;9.876;2023-08-31T09:31:36;99816.88;;;14.75;74.59
7309;BME280;3695;53.330;9.876;2023-08-31T09:34:03;99816.97;;;14.64;74.68
7309;BME280;3695;53.330;9.876;2023-08-31T09:36:29;99817.84;;;14.60;75.50
7309;BME280;3695;53.330;9.876;2023-08-31T09:38:58;99808.28;;;14.42;75.39
7309;BME280;3695;53.330;9.876;2023-08-31T09:41:24;99812.66;;;14.52;75.87
7309;BME280;3695;53.330;9.876;2023-08-31T09:43:52;99813.28;;;14.82;75.90
7309;BME280;3695;53.330;9.876;2023-08-31T09:46:19;99818.47;;;14.94;75.47
7309;BME280;3695;53.330;9.876;2023-08-31T09:48:47;99817.78;;;14.71;76.01
7309;BME280;3695;53.330;9.876;2023-08-31T09:51:15;99810.78;;;14.62;75.74
7309;BME280;3695;53.330;9.876;2023-08-31T09:53:47;99819.78;;;14.38;75.72
7309;BME280;3695;53.330;9.876;2023-08-31T09:56:18;99818.06;;;14.25;76.03
7309;BME280;3695;53.330;9.876;2023-08-31T09:58:47;99820.72;;;14.23;76.41
7309;BME280;3695;53.330;9.876;2023-08-31T10:01:16;99823.38;;;14.22;76.16
7309;BME280;3695;53.330;9.876;2023-08-31T10:03:43;99833.16;;;14.09;76.32
7309;BME280;3695;53.330;9.876;2023-08-31T10:06:10;99826.06;;;14.14;76.83
7309;BME280;3695;53.330;9.876;2023-08-31T10:08:37;99823.25;;;14.46;76.97
7309;BME280;3695;53.330;9.876;2023-08-31T10:11:05;99825.69;;;14.72;76.32
7309;BME280;3695;53.330;9.876;2023-08-31T10:13:33;99838.72;;;14.98;76.27
7309;BME280;3695;53.330;9.876;2023-08-31T10:16:04;99824.47;;;15.11;75.27
7309;BME280;3695;53.330;9.876;2023-08-31T10:18:34;99824.13;;;15.44;74.76
7309;BME280;3695;53.330;9.876;2023-08-31T10:21:01;99821.00;;;15.88;74.23
7309;BME280;3695;53.330;9.876;2023-08-31T10:23:28;99825.13;;;15.31;72.83
7309;BME280;3695;53.330;9.876;2023-08-31T10:26:02;99834.94;;;15.23;72.77
7309;BME280;3695;53.330;9.876;2023-08-31T10:28:29;99823.66;;;15.01;72.73
7309;BME280;3695;53.330;9.876;2023-08-31T10:31:05;99825.41;;;15.04;73.08
7309;BME280;3695;53.330;9.876;2023-08-31T10:33:34;99822.72;;;15.10;72.88
7309;BME280;3695;53.330;9.876;2023-08-31T10:36:01;99830.59;;;15.15;72.21
7309;BME280;3695;53.330;9.876;2023-08-31T10:38:29;99827.19;;;15.02;72.15
7309;BME280;3695;53.330;9.876;2023-08-31T10:41:01;99816.72;;;14.91;72.14
7309;BME280;3695;53.330;9.876;2023-08-31T10:43:32;99821.66;;;15.29;72.20
7309;BME280;3695;53.330;9.876;2023-08-31T10:46:15;99824.47;;;15.13;71.61
7309;BME280;3695;53.330;9.876;2023-08-31T10:48:52;99813.72;;;15.28;71.51
7309;BME280;3695;53.330;9.876;2023-08-31T10:51:22;99818.56;;;15.69;71.25
7309;BME280;3695;53.330;9.876;2023-08-31T10:53:48;99823.88;;;15.70;70.75
7309;BME280;3695;53.330;9.876;2023-08-31T10:56:16;99809.19;;;16.12;70.67
7309;BME280;3695;53.330;9.876;2023-08-31T10:58:42;99815.78;;;15.82;70.24
7309;BME280;3695;53.330;9.876;2023-08-31T11:01:10;99825.56;;;15.76;69.80
7309;BME280;3695;53.330;9.876;2023-08-31T11:42:20;99839.13;;;17.31;66.59
7309;BME280;3695;53.330;9.876;2023-08-31T11:44:48;99843.19;;;17.52;66.40
7309;BME280;3695;53.330;9.876;2023-08-31T11:47:15;99851.91;;;17.58;66.11
7309;BME280;3695;53.330;9.876;2023-08-31T11:49:42;99847.53;;;17.54;65.65
7309;BME280;3695;53.330;9.876;2023-08-31T11:52:10;99833.44;;;17.52;65.56
7309;BME280;3695;53.330;9.876;2023-08-31T11:54:38;99845.97;;;17.44;65.20
7309;BME280;3695;53.330;9.876;2023-08-31T11:57:06;99848.38;;;17.08;65.16
7309;BME280;3695;53.330;9.876;2023-08-31T11:59:35;99842.50;;;16.90;65.75
7309;BME280;3695;53.330;9.876;2023-08-31T12:02:05;99855.75;;;16.91;66.17
7309;BME280;3695;53.330;9.876;2023-08-31T12:04:32;99851.88;;;16.55;66.16
7309;BME280;3695;53.330;9.876;2023-08-31T12:07:01;99855.22;;;16.70;66.37
7309;BME280;3695;53.330;9.876;2023-08-31T12:09:30;99865.06;;;16.61;66.42
7309;BME280;3695;53.330;9.876;2023-08-31T12:11:56;99865.69;;;16.79;65.62
7309;BME280;3695;53.330;9.876;2023-08-31T12:14:24;99862.34;;;16.66;65.55
7309;BME280;3695;53.330;9.876;2023-08-31T12:16:59;99857.44;;;16.95;65.24
7309;BME280;3695;53.330;9.876;2023-08-31T12:19:26;99872.53;;;17.44;64.62
7309;BME280;3695;53.330;9.876;2023-08-31T12:21:53;99859.16;;;17.48;63.50
7309;BME280;3695;53.330;9.876;2023-08-31T12:24:19;99855.66;;;17.48;62.63
7309;BME280;3695;53.330;9.876;2023-08-31T12:26:47;99855.03;;;17.34;62.13
7309;BME280;3695;53.330;9.876;2023-08-31T12:29:14;99860.75;;;17.60;62.64
7309;BME280;3695;53.330;9.876;2023-08-31T12:31:40;99856.47;;;17.50;62.06
7309;BME280;3695;53.330;9.876;2023-08-31T12:34:10;99861.00;;;17.46;61.97
7309;BME280;3695;53.330;9.876;2023-08-31T12:36:36;99861.19;;;17.83;61.30
7309;BME280;3695;53.330;9.876;2023-08-31T12:39:05;99862.97;;;18.24;60.88
7309;BME280;3695;53.330;9.876;2023-08-31T12:41:32;99851.94;;;17.57;60.51
7309;BME280;3695;53.330;9.876;2023-08-31T12:43:59;99863.44;;;17.57;61.58
7309;BME280;3695;53.330;9.876;2023-08-31T12:46:25;99861.91;;;17.44;62.25
7309;BME280;3695;53.330;9.876;2023-08-31T12:48:52;99863.59;;;16.99;62.22
7309;BME280;3695;53.330;9.876;2023-08-31T12:51:20;99879.16;;;16.65;62.55
7309;BME280;3695;53.330;9.876;2023-08-31T12:53:47;99882.69;;;16.67;63.17
7309;BME280;3695;53.330;9.876;2023-08-31T12:56:13;99925.34;;;16.49;64.30
7309;BME280;3695;53.330;9.876;2023-08-31T12:58:46;99917.28;;;14.84;68.90
7309;BME280;3695;53.330;9.876;2023-08-31T13:01:13;99904.47;;;14.08;71.04
7309;BME280;3695;53.330;9.876;2023-08-31T13:03:39;99904.47;;;14.09;73.09
7309;BME280;3695;53.330;9.876;2023-08-31T13:06:05;99907.94;;;14.17;73.55
7309;BME280;3695;53.330;9.876;2023-08-31T13:08:33;99908.84;;;14.12;73.01
7309;BME280;3695;53.330;9.876;2023-08-31T13:11:00;99895.69;;;14.09;73.40
7309;BME280;3695;53.330;9.876;2023-08-31T13:13:29;99905.34;;;14.14;73.59
7309;BME280;3695;53.330;9.876;2023-08-31T13:15:56;99903.50;;;14.32;74.03
7309;BME280;3695;53.330;9.876;2023-08-31T13:18:23;99899.97;;;14.33;74.25
7309;BME280;3695;53.330;9.876;2023-08-31T13:20:50;99911.50;;;14.15;74.56
7309;BME280;3695;53.330;9.876;2023-08-31T13:23:17;99904.34;;;14.44;75.32
7309;BME280;3695;53.330;9.876;2023-08-31T13:25:45;99913.16;;;14.43;75.51
7309;BME280;3695;53.330;9.876;2023-08-31T13:28:12;99908.59;;;14.70;75.23
7309;BME280;3695;53.330;9.876;2023-08-31T13:30:38;99911.94;;;14.94;75.46
7309;BME280;3695;53.330;9.876;2023-08-31T13:33:06;99913.47;;;15.24;75.94
7309;BME280;3695;53.330;9.876;2023-08-31T13:35:33;99914.31;;;15.26;76.39
7309;BME280;3695;53.330;9.876;2023-08-31T13:38:00;99915.19;;;15.30;76.27
7309;BME280;3695;53.330;9.876;2023-08-31T13:40:26;99916.94;;;15.31;76.41
7309;BME280;3695;53.330;9.876;2023-08-31T13:42:55;99913.47;;;15.24;76.01
7309;BME280;3695;53.330;9.876;2023-08-31T13:45:24;99921.53;;;15.09;75.61
7309;BME280;3695;53.330;9.876;2023-08-31T13:47:51;99916.31;;;14.98;75.73
7309;BME280;3695;53.330;9.876;2023-08-31T13:50:17;99926.19;;;14.77;75.77
7309;BME280;3695;53.330;9.876;2023-08-31T13:52:44;99920.91;;;14.72;75.26
7309;BME280;3695;53.330;9.876;2023-08-31T13:55:11;99917.25;;;14.93;74.73
7309;BME280;3695;53.330;9.876;2023-08-31T13:57:38;99921.75;;;14.82;75.27
7309;BME280;3695;53.330;9.876;2023-08-31T14:00:07;99922.53;;;14.91;74.98
7309;BME280;3695;53.330;9.876;2023-08-31T14:02:35;99927.78;;;15.00;75.61
7309;BME280;3695;53.330;9.876;2023-08-31T14:05:02;99922.50;;;15.00;75.27